Regent, North Dakota
Current Conditions -  °F | °C
As of 6:53 PM on Tuesday 25 Nov 2014 (Local Time) from KHEI Reporting Station
Overcast Overcast  
Wind Chill: 18°   Ceiling: 1600
Heat Index: 32°   Visibility: 10mi
Dew Point: 26°   Wind: 29mph
Humidity: 79%   Direction: 310°NW
Pressure: 29.84"   Gusts: 36mph
Location:  46.42°N, 102.56°W
Report Text: KHEI 260153Z AUTO 31025G31KT 10SM BKN016 OVC022 00/M03 A2984 RMK AO2 PK WND 32032/0114 SNE0056 SLP132 P0000 T00001033
Loading
Personal Weather Stations






























Interactive Weather Map New forecast layout! Learn more

10-Day Weather Forecast

Advertisements
Track Severe Weather on mobile